Antoine, Arkansas
Current Conditions -  °F | °C
As of 10:12 AM on Saturday 20 Dec 2014 (Local Time) from KADF Reporting Station
Overcast Overcast  
Wind Chill:   Ceiling: 4700
Heat Index:   Visibility: 7mi
Dew Point:   Wind: 3mph
Humidity: 93%   Direction: 90°E
Pressure: 30.3"   Gusts: NA
Location:  34.04°N, 93.42°W
Report Text: KADF 201612Z AUTO 09003KT 7SM SCT010 OVC047 06/05 A3030 RMK AO2
Loading
Personal Weather Stations






























Interactive Weather Map New forecast layout! Learn more

10-Day Weather Forecast

Advertisements
Track Severe Weather on mobile